Terminal Aerodrome Forecast
Issued by NWS Grand Forks, ND

Home | Current Version | Previous Version | Text Only | Print | Product List | Glossary On
Versions: 1 2 3 4 5 6 7 8 9 10 11 12 13 14 15 16 17 18 19 20
000
FTUS43 KFGF 242339
TAFFAR
TAF
KFAR 242339Z 2500/2524 35015KT P6SM BKN025
     FM250300 33009KT P6SM FEW100
     FM250900 30007KT P6SM SCT100
     FM251200 26005KT P6SM BKN080
     FM251800 28009KT P6SM BKN060=

USA.gov is the U.S. government's official web portal to all federal, state and local government web resources and services.